createdAt,value
2022-08-18T00:03:00.974Z,21.30
2022-08-18T00:05:48.940Z,21.20
2022-08-18T00:08:38.535Z,21.20
2022-08-18T00:11:28.454Z,21.20
2022-08-18T00:14:29.156Z,21.20
2022-08-18T00:17:17.925Z,21.20
2022-08-18T00:20:07.055Z,21.10
2022-08-18T00:22:56.917Z,21.20
2022-08-18T00:25:45.487Z,21.10
2022-08-18T00:28:34.356Z,21.10
2022-08-18T00:31:21.680Z,21.00
2022-08-18T00:34:08.881Z,21.00
2022-08-18T00:36:56.269Z,20.90
2022-08-18T00:39:46.604Z,21.00
2022-08-18T00:42:35.290Z,20.90
2022-08-18T00:45:27.482Z,20.90
2022-08-18T00:48:19.176Z,21.00
2022-08-18T00:51:17.072Z,20.90
2022-08-18T00:54:10.146Z,20.80
2022-08-18T00:57:00.328Z,20.80
2022-08-18T00:59:51.409Z,20.70
2022-08-18T01:02:45.896Z,20.70
2022-08-18T01:05:41.033Z,20.80
2022-08-18T01:08:29.594Z,20.70
2022-08-18T01:11:16.979Z,20.70
2022-08-18T01:14:05.108Z,20.70
2022-08-18T01:17:06.803Z,20.70
2022-08-18T01:20:13.601Z,20.60
2022-08-18T01:23:11.428Z,20.60
2022-08-18T01:25:59.881Z,20.60
2022-08-18T01:28:47.492Z,20.50
2022-08-18T01:31:38.781Z,20.50
2022-08-18T01:34:28.757Z,20.50
2022-08-18T01:37:18.091Z,20.40
2022-08-18T01:41:11.078Z,20.40
2022-08-18T01:43:16.676Z,20.40
2022-08-18T01:46:04.321Z,20.30
2022-08-18T01:48:54.023Z,20.30
2022-08-18T01:51:42.584Z,20.20
2022-08-18T01:54:30.360Z,20.20
2022-08-18T01:57:20.832Z,20.10
2022-08-18T02:00:10.494Z,20.10
2022-08-18T02:03:02.668Z,20.10
2022-08-18T02:05:51.949Z,20.10
2022-08-18T02:08:39.799Z,20.10
2022-08-18T02:11:30.792Z,20.00
2022-08-18T02:14:19.384Z,19.90
2022-08-18T02:17:15.496Z,19.90
2022-08-18T02:20:02.468Z,19.90
2022-08-18T02:22:52.309Z,19.80
2022-08-18T02:25:39.854Z,19.80
2022-08-18T02:28:30.617Z,19.80
2022-08-18T02:31:22.347Z,19.70
2022-08-18T02:34:09.238Z,19.70
2022-08-18T02:36:56.550Z,19.70
2022-08-18T02:39:43.647Z,19.70
2022-08-18T02:42:31.199Z,19.60
2022-08-18T02:45:18.596Z,19.60
2022-08-18T02:48:09.184Z,19.50
2022-08-18T02:51:03.432Z,19.50
2022-08-18T02:53:51.479Z,19.50
2022-08-18T02:56:42.593Z,19.50
2022-08-18T02:59:32.120Z,19.50
2022-08-18T03:02:21.186Z,19.40
2022-08-18T03:05:14.570Z,19.40
2022-08-18T03:08:02.496Z,19.40
2022-08-18T03:10:53.220Z,19.40
2022-08-18T03:13:40.388Z,19.30
2022-08-18T03:16:29.028Z,19.30
2022-08-18T03:19:17.422Z,19.30
2022-08-18T03:22:27.621Z,19.30
2022-08-18T03:25:15.542Z,19.30
2022-08-18T03:28:04.486Z,19.20
2022-08-18T03:30:51.581Z,19.20
2022-08-18T03:33:39.293Z,19.20
2022-08-18T03:36:28.846Z,19.10
2022-08-18T03:39:18.685Z,19.10
2022-08-18T03:42:05.919Z,19.10
2022-08-18T03:44:53.167Z,19.10
2022-08-18T03:47:41.434Z,19.00
2022-08-18T03:50:29.033Z,19.00
2022-08-18T03:53:16.190Z,19.00
2022-08-18T03:56:17.514Z,19.00
2022-08-18T03:59:07.838Z,18.90
2022-08-18T04:01:56.283Z,18.90
2022-08-18T04:04:43.441Z,18.90
2022-08-18T04:07:30.900Z,18.90
2022-08-18T04:10:19.720Z,18.80
2022-08-18T04:13:08.295Z,18.80
2022-08-18T04:15:55.434Z,18.80
2022-08-18T04:18:42.630Z,18.80
2022-08-18T04:21:31.539Z,18.80
2022-08-18T04:24:18.467Z,18.80
2022-08-18T04:27:06.363Z,18.80
2022-08-18T04:29:56.844Z,18.80
2022-08-18T04:32:45.511Z,18.80
2022-08-18T04:35:32.962Z,18.80
2022-08-18T04:38:20.013Z,18.80
2022-08-18T04:41:07.631Z,18.80
2022-08-18T04:43:55.309Z,18.80
2022-08-18T04:46:47.549Z,18.80
2022-08-18T04:49:34.502Z,18.80
2022-08-18T04:52:40.513Z,18.80
2022-08-18T04:55:27.665Z,18.80
2022-08-18T04:58:13.576Z,18.80
2022-08-18T05:01:01.975Z,18.80
2022-08-18T05:03:51.405Z,18.90
2022-08-18T05:06:39.140Z,18.90
2022-08-18T05:09:26.207Z,18.90
2022-08-18T05:12:16.700Z,18.90
2022-08-18T05:15:03.938Z,19.00
2022-08-18T05:17:51.509Z,19.00
2022-08-18T05:20:41.648Z,19.10
2022-08-18T05:23:31.712Z,19.10
2022-08-18T05:26:19.853Z,19.20
2022-08-18T05:29:18.094Z,19.20
2022-08-18T05:32:08.115Z,19.30
2022-08-18T05:34:54.935Z,19.40
2022-08-18T05:37:54.608Z,19.50
2022-08-18T05:40:42.315Z,19.60
2022-08-18T05:43:29.364Z,19.70
2022-08-18T05:46:17.204Z,19.80
2022-08-18T05:49:08.697Z,20.00
2022-08-18T05:52:00.208Z,20.10
2022-08-18T05:55:06.479Z,20.20
2022-08-18T05:57:57.938Z,20.30
2022-08-18T06:00:49.208Z,20.40
2022-08-18T06:03:45.306Z,20.50
2022-08-18T06:06:35.185Z,20.50
2022-08-18T06:09:27.382Z,20.60
2022-08-18T06:12:25.694Z,20.60
2022-08-18T06:15:17.664Z,20.70
2022-08-18T06:18:17.683Z,20.70
2022-08-18T06:21:18.323Z,20.80
2022-08-18T06:24:18.557Z,20.90
2022-08-18T06:27:15.599Z,20.90
2022-08-18T06:30:11.925Z,21.00
2022-08-18T06:33:13.809Z,21.00
2022-08-18T06:36:09.088Z,21.00
2022-08-18T06:39:07.349Z,21.00
2022-08-18T06:41:55.052Z,21.00
2022-08-18T06:44:49.284Z,21.00
2022-08-18T06:47:44.710Z,21.10
2022-08-18T06:50:35.383Z,21.10
2022-08-18T06:53:27.136Z,21.10
2022-08-18T06:56:26.570Z,21.20
2022-08-18T06:59:21.974Z,21.30
2022-08-18T07:02:22.438Z,21.30
2022-08-18T07:05:21.988Z,21.40
2022-08-18T07:08:15.723Z,21.50
2022-08-18T07:11:15.257Z,21.50
2022-08-18T07:14:22.167Z,21.60
2022-08-18T07:17:12.520Z,21.70
2022-08-18T07:20:03.345Z,21.70
2022-08-18T07:22:59.907Z,21.70
2022-08-18T07:25:50.519Z,21.80
2022-08-18T07:28:41.879Z,21.90
2022-08-18T07:31:40.073Z,21.90
2022-08-18T07:34:37.361Z,22.00
2022-08-18T07:37:29.080Z,22.00
2022-08-18T07:40:25.215Z,22.10
2022-08-18T07:43:19.266Z,22.20
2022-08-18T07:46:13.524Z,22.30
2022-08-18T07:49:01.758Z,22.50
2022-08-18T07:51:58.730Z,22.60
2022-08-18T07:54:55.148Z,22.70
2022-08-18T07:57:50.479Z,22.80
2022-08-18T08:00:59.579Z,22.90
2022-08-18T08:03:55.834Z,23.00
2022-08-18T08:07:20.244Z,23.10
2022-08-18T08:10:10.373Z,23.30
2022-08-18T08:13:12.066Z,23.50
2022-08-18T08:16:11.976Z,23.70
2022-08-18T08:19:12.360Z,23.70
2022-08-18T08:22:06.496Z,23.80
2022-08-18T08:25:02.485Z,23.90
2022-08-18T08:28:07.438Z,24.10
2022-08-18T08:31:33.324Z,24.30
2022-08-18T08:34:23.489Z,24.30
2022-08-18T08:37:16.243Z,24.50
2022-08-18T08:40:08.826Z,24.60
2022-08-18T08:43:02.373Z,24.70
2022-08-18T08:46:08.427Z,24.80
2022-08-18T08:49:07.736Z,25.00
2022-08-18T08:51:59.822Z,25.10
2022-08-18T08:54:53.725Z,25.20
2022-08-18T08:57:51.876Z,25.30
2022-08-18T09:00:43.929Z,25.50
2022-08-18T09:03:44.448Z,25.70
2022-08-18T09:06:45.687Z,26.00
2022-08-18T09:09:54.957Z,26.30
2022-08-18T09:12:58.100Z,26.50
2022-08-18T09:16:13.553Z,26.70
2022-08-18T09:19:17.872Z,26.80
2022-08-18T09:22:14.157Z,27.00
2022-08-18T09:25:01.739Z,27.30
2022-08-18T09:28:09.941Z,27.60
2022-08-18T09:31:20.602Z,27.90
2022-08-18T09:34:31.841Z,28.20
2022-08-18T09:37:24.291Z,28.50
2022-08-18T09:43:39.008Z,28.80
2022-08-18T09:46:55.877Z,29.00
2022-08-18T09:49:54.721Z,29.20
2022-08-18T09:52:50.456Z,29.30
2022-08-18T09:55:56.704Z,29.40
2022-08-18T09:58:54.039Z,29.30
2022-08-18T10:01:42.636Z,29.30
2022-08-18T10:04:49.553Z,29.30
2022-08-18T10:07:43.454Z,29.30
2022-08-18T10:11:00.685Z,29.30
2022-08-18T10:14:01.580Z,29.30
2022-08-18T10:20:25.654Z,29.40
2022-08-18T10:24:03.158Z,29.50
2022-08-18T10:27:07.599Z,29.60
2022-08-18T10:29:57.289Z,29.70
2022-08-18T10:32:54.612Z,29.70
2022-08-18T10:35:59.256Z,29.70
2022-08-18T10:38:54.146Z,29.60
2022-08-18T10:41:56.880Z,29.60
2022-08-18T10:44:48.215Z,29.70
2022-08-18T10:47:36.435Z,29.80
2022-08-18T10:50:29.859Z,29.90
2022-08-18T10:53:39.174Z,30.10
2022-08-18T10:56:43.773Z,30.20
2022-08-18T10:59:47.805Z,30.10
2022-08-18T11:03:21.104Z,30.20
2022-08-18T11:09:14.917Z,30.10
2022-08-18T11:12:05.837Z,30.20
2022-08-18T11:15:22.576Z,30.20
2022-08-18T11:18:31.486Z,30.20
2022-08-18T11:21:37.433Z,30.10
2022-08-18T11:24:32.503Z,30.20
2022-08-18T11:27:23.867Z,30.10
2022-08-18T11:30:12.150Z,30.00
2022-08-18T11:33:02.884Z,30.00
2022-08-18T11:35:53.050Z,30.00
2022-08-18T11:38:42.164Z,30.00
2022-08-18T11:41:48.293Z,30.00
2022-08-18T11:44:40.032Z,30.00
2022-08-18T11:47:27.878Z,29.90
2022-08-18T11:50:29.515Z,29.80
2022-08-18T11:53:25.529Z,29.60
2022-08-18T11:56:30.666Z,29.60
2022-08-18T11:59:53.325Z,29.50
2022-08-18T12:02:42.784Z,29.60
2022-08-18T12:05:33.862Z,29.70
2022-08-18T12:11:53.701Z,29.90
2022-08-18T12:15:02.962Z,30.00
2022-08-18T12:18:00.942Z,30.00
2022-08-18T12:20:51.225Z,29.70
2022-08-18T12:23:49.685Z,29.50
2022-08-18T12:26:47.285Z,29.40
2022-08-18T12:29:43.347Z,29.20
2022-08-18T12:32:48.810Z,29.20
2022-08-18T12:35:44.879Z,29.30
2022-08-18T12:38:36.385Z,29.50
2022-08-18T12:41:24.130Z,29.60
2022-08-18T12:44:13.338Z,29.30
2022-08-18T12:47:03.084Z,29.00
2022-08-18T12:49:52.110Z,28.80
2022-08-18T12:52:41.533Z,28.70
2022-08-18T12:55:44.033Z,28.50
2022-08-18T12:58:32.610Z,28.40
2022-08-18T13:01:25.719Z,28.30
2022-08-18T13:04:15.653Z,28.30
2022-08-18T13:07:08.264Z,28.40
2022-08-18T13:09:56.793Z,28.50
2022-08-18T13:12:45.945Z,28.60
2022-08-18T13:15:33.240Z,28.50
2022-08-18T13:18:20.305Z,28.50
2022-08-18T13:21:18.542Z,28.40
2022-08-18T13:24:05.798Z,28.40
2022-08-18T13:26:57.917Z,28.20
2022-08-18T13:29:45.511Z,28.10
2022-08-18T13:32:47.141Z,28.10
2022-08-18T13:35:44.520Z,28.10
2022-08-18T13:38:31.560Z,28.10
2022-08-18T13:41:18.803Z,28.20
2022-08-18T13:44:18.596Z,28.30
2022-08-18T13:47:06.210Z,28.40
2022-08-18T13:49:58.704Z,28.40
2022-08-18T13:52:47.061Z,28.40
2022-08-18T13:55:35.029Z,28.30
2022-08-18T13:58:22.375Z,28.20
2022-08-18T14:01:42.405Z,28.10
2022-08-18T14:04:23.152Z,27.90
2022-08-18T14:07:24.574Z,27.90
2022-08-18T14:10:17.126Z,27.90
2022-08-18T14:13:19.929Z,27.90
2022-08-18T14:16:08.678Z,28.00
2022-08-18T14:19:13.093Z,27.90
2022-08-18T14:22:22.235Z,27.80
2022-08-18T14:25:30.136Z,27.70
2022-08-18T14:28:19.487Z,27.70
2022-08-18T14:31:12.033Z,27.70
2022-08-18T14:34:04.081Z,27.80
2022-08-18T14:36:51.643Z,27.80
2022-08-18T14:39:42.107Z,27.80
2022-08-18T14:42:41.840Z,27.80
2022-08-18T14:45:52.256Z,27.80
2022-08-18T14:48:42.424Z,27.70
2022-08-18T14:51:31.446Z,27.60
2022-08-18T14:54:20.681Z,27.60
2022-08-18T14:57:14.268Z,27.70
2022-08-18T15:00:02.252Z,27.80
2022-08-18T15:02:53.399Z,27.90
2022-08-18T15:05:40.744Z,28.00
2022-08-18T15:08:33.059Z,28.00
2022-08-18T15:11:23.907Z,28.10
2022-08-18T15:14:14.236Z,28.10
2022-08-18T15:17:11.981Z,28.20
2022-08-18T15:20:02.173Z,28.20
2022-08-18T15:23:05.421Z,28.10
2022-08-18T15:25:52.675Z,28.20
2022-08-18T15:28:41.795Z,28.00
2022-08-18T15:34:47.307Z,28.00
2022-08-18T15:37:45.068Z,28.00
2022-08-18T15:40:41.383Z,28.00
2022-08-18T15:43:33.992Z,28.00
2022-08-18T15:46:22.775Z,28.00
2022-08-18T15:49:15.532Z,28.00
2022-08-18T15:52:02.766Z,27.90
2022-08-18T15:54:51.036Z,27.80
2022-08-18T15:57:39.524Z,27.80
2022-08-18T16:00:32.734Z,27.80
2022-08-18T16:03:21.326Z,27.70
2022-08-18T16:06:15.881Z,27.60
2022-08-18T16:09:07.944Z,27.50
2022-08-18T16:12:00.269Z,27.40
2022-08-18T16:14:48.383Z,27.40
2022-08-18T16:17:39.676Z,27.20
2022-08-18T16:20:27.180Z,27.10
2022-08-18T16:23:15.727Z,27.00
2022-08-18T16:26:04.284Z,27.10
2022-08-18T16:28:53.487Z,27.00
2022-08-18T16:31:41.199Z,27.00
2022-08-18T16:34:30.996Z,26.90
2022-08-18T16:37:17.701Z,26.90
2022-08-18T16:40:05.850Z,26.90
2022-08-18T16:42:56.474Z,26.80
2022-08-18T16:45:44.292Z,26.80
2022-08-18T16:48:33.029Z,26.80
2022-08-18T16:51:31.602Z,26.70
2022-08-18T16:54:18.698Z,26.70
2022-08-18T16:57:06.017Z,26.60
2022-08-18T17:00:07.009Z,26.60
2022-08-18T17:03:11.443Z,26.50
2022-08-18T17:06:02.433Z,26.40
2022-08-18T17:08:49.719Z,26.40
2022-08-18T17:11:37.441Z,26.30
2022-08-18T17:14:40.873Z,26.30
2022-08-18T17:17:30.008Z,26.20
2022-08-18T17:20:19.195Z,26.10
2022-08-18T17:23:06.662Z,26.00
2022-08-18T17:25:56.261Z,25.90
2022-08-18T17:28:50.670Z,25.70
2022-08-18T17:31:45.140Z,25.40
2022-08-18T17:35:03.622Z,24.90
2022-08-18T17:38:07.483Z,24.20
2022-08-18T17:41:01.101Z,23.50
2022-08-18T17:43:49.971Z,22.90
2022-08-18T17:46:42.758Z,22.60
2022-08-18T17:49:48.973Z,22.40
2022-08-18T17:53:02.047Z,22.30
2022-08-18T17:55:53.825Z,22.30
2022-08-18T17:58:46.885Z,22.30
2022-08-18T18:01:36.219Z,22.30
2022-08-18T18:04:23.873Z,22.20
2022-08-18T18:07:23.758Z,22.20
2022-08-18T18:10:15.267Z,22.10
2022-08-18T18:13:14.823Z,22.00
2022-08-18T18:16:21.810Z,21.90
2022-08-18T18:19:14.744Z,21.80
2022-08-18T18:22:09.072Z,21.80
2022-08-18T18:24:59.464Z,21.60
2022-08-18T18:27:50.143Z,21.50
2022-08-18T18:30:37.837Z,21.50
2022-08-18T18:33:30.452Z,21.40
2022-08-18T18:36:35.317Z,21.30
2022-08-18T18:39:33.835Z,21.30
2022-08-18T18:42:28.887Z,21.20
2022-08-18T18:45:27.831Z,21.20
2022-08-18T18:48:45.309Z,21.20
2022-08-18T18:51:40.122Z,21.10
2022-08-18T18:54:49.825Z,21.00
2022-08-18T18:57:46.387Z,21.00
2022-08-18T19:00:44.664Z,20.90
2022-08-18T19:03:47.941Z,20.90
2022-08-18T19:06:50.230Z,20.90
2022-08-18T19:09:48.510Z,20.90
2022-08-18T19:12:50.316Z,20.90
2022-08-18T19:15:41.060Z,20.90
2022-08-18T19:18:34.717Z,20.90
2022-08-18T19:22:03.235Z,20.90
2022-08-18T19:24:45.792Z,20.90
2022-08-18T19:27:42.555Z,20.90
2022-08-18T19:30:34.708Z,20.90
2022-08-18T19:33:32.583Z,20.90
2022-08-18T19:36:40.832Z,20.90
2022-08-18T19:39:41.827Z,20.90
2022-08-18T19:42:38.447Z,20.80
2022-08-18T19:45:33.098Z,20.70
2022-08-18T19:48:28.823Z,20.70
2022-08-18T19:51:23.736Z,20.60
2022-08-18T19:54:28.367Z,20.50
2022-08-18T19:57:35.894Z,20.50
2022-08-18T20:00:37.835Z,20.40
2022-08-18T20:03:54.912Z,20.30
2022-08-18T20:06:58.489Z,20.30
2022-08-18T20:10:01.710Z,20.10
2022-08-18T20:13:11.352Z,20.10
2022-08-18T20:16:12.882Z,20.10
2022-08-18T20:19:01.944Z,20.10
2022-08-18T20:22:06.303Z,20.10
2022-08-18T20:25:04.814Z,19.90
2022-08-18T20:27:54.285Z,20.00
2022-08-18T20:31:02.056Z,20.00
2022-08-18T20:34:14.001Z,20.10
2022-08-18T20:37:08.337Z,20.10
2022-08-18T20:39:58.098Z,20.10
2022-08-18T20:42:51.607Z,20.10
2022-08-18T20:45:46.908Z,20.10
2022-08-18T20:49:06.331Z,20.00
2022-08-18T20:52:02.793Z,20.00
2022-08-18T20:55:03.059Z,20.00
2022-08-18T20:58:08.115Z,20.00
2022-08-18T21:00:58.726Z,20.00
2022-08-18T21:03:47.691Z,20.00
2022-08-18T21:06:42.553Z,20.00
2022-08-18T21:09:32.495Z,20.00
2022-08-18T21:12:24.804Z,19.90
2022-08-18T21:15:12.548Z,20.00
2022-08-18T21:18:03.862Z,19.90
2022-08-18T21:20:55.337Z,20.00
2022-08-18T21:23:44.473Z,20.00
2022-08-18T21:26:33.161Z,20.00
2022-08-18T21:29:20.422Z,20.00
2022-08-18T21:32:12.349Z,20.00
2022-08-18T21:35:06.011Z,20.00
2022-08-18T21:38:02.127Z,20.00
2022-08-18T21:40:51.971Z,20.00
2022-08-18T21:43:49.249Z,19.90
2022-08-18T21:46:37.963Z,20.00
2022-08-18T21:49:29.283Z,19.90
2022-08-18T21:52:24.132Z,19.90
2022-08-18T21:55:21.425Z,19.90
2022-08-18T21:58:21.500Z,19.90
2022-08-18T22:01:24.959Z,19.90
2022-08-18T22:04:25.788Z,19.80
2022-08-18T22:07:21.953Z,19.90
2022-08-18T22:10:41.591Z,19.80
2022-08-18T22:13:48.445Z,19.80
2022-08-18T22:16:37.298Z,19.80
2022-08-18T22:19:26.023Z,19.80
2022-08-18T22:22:12.400Z,19.80
2022-08-18T22:25:00.592Z,19.80
2022-08-18T22:27:53.690Z,19.70
2022-08-18T22:30:42.292Z,19.70
2022-08-18T22:33:30.093Z,19.70
2022-08-18T22:36:22.064Z,19.70
2022-08-18T22:39:15.495Z,19.70
2022-08-18T22:42:03.928Z,19.70
2022-08-18T22:44:54.203Z,19.70
2022-08-18T22:47:44.649Z,19.60
2022-08-18T22:50:32.787Z,19.60
2022-08-18T22:53:20.720Z,19.60
2022-08-18T22:56:08.609Z,19.50
2022-08-18T22:58:57.304Z,19.50
2022-08-18T23:01:49.634Z,19.50
2022-08-18T23:04:37.481Z,19.50
2022-08-18T23:07:24.961Z,19.40
2022-08-18T23:10:13.753Z,19.50
2022-08-18T23:13:04.539Z,19.40
2022-08-18T23:15:51.954Z,19.40
2022-08-18T23:19:02.116Z,19.40
2022-08-18T23:21:51.928Z,19.40
2022-08-18T23:24:42.939Z,19.30
2022-08-18T23:27:30.468Z,19.30
2022-08-18T23:30:18.930Z,19.30
2022-08-18T23:33:07.179Z,19.30
2022-08-18T23:35:56.499Z,19.30
2022-08-18T23:38:44.171Z,19.30
2022-08-18T23:41:31.862Z,19.30
2022-08-18T23:44:19.713Z,19.30
2022-08-18T23:47:07.634Z,19.30
2022-08-18T23:49:54.974Z,19.30
2022-08-18T23:52:43.891Z,19.30
2022-08-18T23:55:35.156Z,19.30
2022-08-18T23:58:22.779Z,19.30
